createdAt,value
2023-02-08T00:00:12.730Z,0.42
2023-02-08T00:02:39.540Z,0.37
2023-02-08T00:05:07.018Z,0.37
2023-02-08T00:07:33.811Z,0.34
2023-02-08T00:10:01.904Z,0.29
2023-02-08T00:12:28.654Z,0.30
2023-02-08T00:14:55.376Z,0.27
2023-02-08T00:17:22.081Z,0.24
2023-02-08T00:19:48.858Z,0.22
2023-02-08T00:22:15.588Z,0.23
2023-02-08T00:24:42.329Z,0.32
2023-02-08T00:27:10.468Z,0.26
2023-02-08T00:29:37.191Z,0.35
2023-02-08T00:32:04.575Z,0.31
2023-02-08T00:34:31.450Z,0.29
2023-02-08T00:37:00.616Z,0.21
2023-02-08T00:39:27.402Z,0.20
2023-02-08T00:41:54.261Z,0.20
2023-02-08T00:44:24.975Z,0.24
2023-02-08T00:46:51.854Z,0.18
2023-02-08T00:49:18.749Z,0.19
2023-02-08T00:51:45.521Z,0.19
2023-02-08T00:54:13.889Z,0.21
2023-02-08T00:56:40.636Z,0.25
2023-02-08T00:59:07.437Z,0.19
2023-02-08T01:01:35.632Z,0.23
2023-02-08T01:04:02.765Z,0.22
2023-02-08T01:06:29.503Z,0.16
2023-02-08T01:08:56.254Z,0.27
2023-02-08T01:11:24.971Z,0.24
2023-02-08T01:13:52.660Z,0.22
2023-02-08T01:16:21.432Z,0.23
2023-02-08T01:18:52.067Z,0.24
2023-02-08T01:21:21.293Z,0.23
2023-02-08T01:23:48.624Z,0.17
2023-02-08T01:26:16.911Z,0.58
2023-02-08T01:28:44.218Z,0.42
2023-02-08T01:31:12.640Z,0.27
2023-02-08T01:33:39.569Z,0.22
2023-02-08T01:36:08.967Z,0.17
2023-02-08T01:38:36.824Z,0.14
2023-02-08T01:41:05.192Z,0.12
2023-02-08T01:43:34.115Z,0.16
2023-02-08T01:46:01.358Z,0.13
2023-02-08T01:48:31.882Z,0.14
2023-02-08T01:51:03.307Z,0.12
2023-02-08T01:53:34.457Z,0.11
2023-02-08T01:56:04.703Z,0.11
2023-02-08T01:58:36.604Z,0.10
2023-02-08T02:01:04.276Z,0.10
2023-02-08T02:03:31.307Z,0.05
2023-02-08T02:06:03.402Z,0.03
2023-02-08T02:08:31.905Z,0.02
2023-02-08T02:10:58.737Z,0.05
2023-02-08T02:13:27.404Z,0.06
2023-02-08T02:15:54.966Z,0.08
2023-02-08T02:18:25.835Z,0.09
2023-02-08T02:21:21.999Z,0.22
2023-02-08T02:24:33.745Z,0.17
2023-02-08T02:27:25.360Z,0.09
2023-02-08T02:30:33.940Z,0.11
2023-02-08T02:33:30.989Z,0.11
2023-02-08T02:36:02.983Z,0.10
2023-02-08T02:38:44.219Z,0.15
2023-02-08T02:41:21.232Z,0.13
2023-02-08T02:43:56.420Z,0.21
2023-02-08T02:46:27.595Z,0.20
2023-02-08T02:49:02.642Z,0.16
2023-02-08T02:51:36.098Z,0.18
2023-02-08T02:54:07.080Z,0.19
2023-02-08T02:56:38.392Z,0.20
2023-02-08T02:59:10.624Z,0.25
2023-02-08T03:01:38.203Z,0.22
2023-02-08T03:04:14.784Z,0.21
2023-02-08T03:06:55.006Z,0.21
2023-02-08T03:09:46.019Z,0.26
2023-02-08T03:12:23.992Z,0.23
2023-02-08T03:14:57.947Z,0.32
2023-02-08T03:17:46.973Z,0.27
2023-02-08T03:20:19.858Z,0.23
2023-02-08T03:22:58.861Z,0.23
2023-02-08T03:25:32.109Z,0.21
2023-02-08T03:28:05.825Z,0.21
2023-02-08T03:33:07.005Z,0.16
2023-02-08T03:35:40.377Z,0.18
2023-02-08T03:38:11.065Z,0.23
2023-02-08T03:40:41.839Z,0.25
2023-02-08T03:43:14.824Z,0.27
2023-02-08T03:45:46.484Z,0.45
2023-02-08T03:48:16.102Z,0.54
2023-02-08T03:50:49.360Z,0.56
2023-02-08T03:53:19.196Z,0.49
2023-02-08T03:55:48.802Z,0.42
2023-02-08T03:58:22.022Z,0.36
2023-02-08T04:00:54.681Z,0.66
2023-02-08T04:03:25.990Z,0.49
2023-02-08T04:05:54.624Z,0.49
2023-02-08T04:08:21.750Z,0.43
2023-02-08T04:10:48.797Z,0.50
2023-02-08T04:13:15.572Z,0.37
2023-02-08T04:15:42.716Z,0.29
2023-02-08T04:18:09.476Z,0.32
2023-02-08T04:20:36.294Z,0.37
2023-02-08T04:23:04.445Z,0.43
2023-02-08T04:25:31.156Z,1.40
2023-02-08T04:27:57.978Z,4.13
2023-02-08T04:30:24.725Z,4.04
2023-02-08T04:32:51.469Z,2.29
2023-02-08T04:35:18.388Z,1.32
2023-02-08T04:37:45.166Z,0.89
2023-02-08T04:40:13.423Z,0.95
2023-02-08T04:42:40.143Z,0.62
2023-02-08T04:45:07.755Z,0.42
2023-02-08T04:47:34.488Z,0.43
2023-02-08T04:50:01.257Z,0.42
2023-02-08T04:52:29.137Z,0.38
2023-02-08T04:54:55.926Z,0.34
2023-02-08T04:57:24.085Z,0.28
2023-02-08T04:59:50.893Z,0.24
2023-02-08T05:02:17.725Z,0.24
2023-02-08T05:04:44.604Z,0.22
2023-02-08T05:07:11.392Z,0.24
2023-02-08T05:09:38.134Z,0.33
2023-02-08T05:12:05.341Z,0.39
2023-02-08T05:14:33.468Z,0.30
2023-02-08T05:17:00.366Z,0.25
2023-02-08T05:19:27.173Z,0.27
2023-02-08T05:21:53.987Z,0.19
2023-02-08T05:24:20.739Z,0.19
2023-02-08T05:26:47.480Z,0.23
2023-02-08T05:29:14.374Z,0.59
2023-02-08T05:31:42.649Z,0.40
2023-02-08T05:34:09.457Z,0.31
2023-02-08T05:36:36.279Z,0.21
2023-02-08T05:39:03.108Z,0.28
2023-02-08T05:41:29.842Z,0.29
2023-02-08T05:43:56.650Z,0.25
2023-02-08T05:46:23.435Z,0.37
2023-02-08T05:48:51.642Z,0.55
2023-02-08T05:51:18.376Z,0.40
2023-02-08T05:53:45.187Z,0.93
2023-02-08T05:56:12.119Z,1.78
2023-02-08T05:58:38.861Z,1.13
2023-02-08T06:01:08.764Z,1.80
2023-02-08T06:03:35.553Z,2.47
2023-02-08T06:06:04.459Z,1.55
2023-02-08T06:08:31.327Z,0.92
2023-02-08T06:10:58.168Z,0.62
2023-02-08T06:13:25.162Z,0.64
2023-02-08T06:15:51.990Z,0.53
2023-02-08T06:18:18.779Z,0.92
2023-02-08T06:20:45.584Z,0.72
2023-02-08T06:23:13.794Z,0.80
2023-02-08T06:25:40.574Z,0.52
2023-02-08T06:28:07.480Z,0.38
2023-02-08T06:30:34.206Z,0.39
2023-02-08T06:33:01.017Z,0.35
2023-02-08T06:35:27.755Z,0.37
2023-02-08T06:37:54.501Z,0.34
2023-02-08T06:40:22.580Z,0.39
2023-02-08T06:42:49.392Z,0.35
2023-02-08T06:45:16.328Z,0.43
2023-02-08T06:47:43.045Z,0.33
2023-02-08T06:50:10.744Z,0.36
2023-02-08T06:52:37.689Z,0.41
2023-02-08T06:55:05.146Z,0.52
2023-02-08T06:57:33.269Z,0.49
2023-02-08T07:00:00.016Z,0.44
2023-02-08T07:02:26.807Z,0.37
2023-02-08T07:04:56.213Z,0.34
2023-02-08T07:07:23.114Z,0.32
2023-02-08T07:09:49.968Z,0.31
2023-02-08T07:12:16.897Z,0.40
2023-02-08T07:14:45.080Z,0.35
2023-02-08T07:17:12.721Z,0.38
2023-02-08T07:19:40.117Z,0.44
2023-02-08T07:22:07.586Z,0.37
2023-02-08T07:24:35.304Z,0.58
2023-02-08T07:27:02.310Z,0.75
2023-02-08T07:29:30.437Z,0.77
2023-02-08T07:32:00.061Z,0.59
2023-02-08T07:34:29.460Z,4.30
2023-02-08T07:36:57.235Z,5.90
2023-02-08T07:39:25.103Z,4.13
2023-02-08T07:41:52.330Z,2.37
2023-02-08T07:44:19.208Z,1.49
2023-02-08T07:46:46.244Z,0.98
2023-02-08T07:49:14.855Z,0.74
2023-02-08T07:51:41.726Z,0.63
2023-02-08T07:54:08.467Z,0.57
2023-02-08T07:56:35.291Z,0.54
2023-02-08T07:59:02.013Z,0.48
2023-02-08T08:01:29.007Z,0.43
2023-02-08T08:03:55.876Z,0.88
2023-02-08T08:06:24.093Z,0.76
2023-02-08T08:08:51.081Z,0.72
2023-02-08T08:11:19.241Z,0.95
2023-02-08T08:13:46.057Z,1.04
2023-02-08T08:16:13.282Z,1.11
2023-02-08T08:18:40.157Z,0.93
2023-02-08T08:21:08.081Z,0.97
2023-02-08T08:23:36.660Z,0.81
2023-02-08T08:26:07.932Z,0.83
2023-02-08T08:28:34.737Z,0.97
2023-02-08T08:31:01.682Z,0.96
2023-02-08T08:33:28.529Z,0.97
2023-02-08T08:35:55.268Z,1.41
2023-02-08T08:38:22.057Z,1.35
2023-02-08T08:40:50.145Z,1.19
2023-02-08T08:43:16.963Z,1.09
2023-02-08T08:45:43.788Z,1.19
2023-02-08T08:48:10.556Z,1.65
2023-02-08T08:50:37.430Z,2.08
2023-02-08T08:53:04.636Z,2.31
2023-02-08T08:55:31.569Z,2.46
2023-02-08T08:57:59.741Z,2.90
2023-02-08T09:00:26.511Z,2.76
2023-02-08T09:02:53.377Z,2.60
2023-02-08T09:05:20.176Z,2.69
2023-02-08T09:07:46.883Z,2.45
2023-02-08T09:10:13.663Z,2.42
2023-02-08T09:12:40.605Z,2.13
2023-02-08T09:15:09.301Z,2.26
2023-02-08T09:17:36.056Z,2.41
2023-02-08T09:20:04.846Z,2.04
2023-02-08T09:22:31.847Z,2.07
2023-02-08T09:24:58.768Z,1.86
2023-02-08T09:27:25.549Z,2.17
2023-02-08T09:29:52.599Z,2.35
2023-02-08T09:32:20.712Z,2.07
2023-02-08T09:34:47.503Z,2.31
2023-02-08T09:37:14.418Z,2.71
2023-02-08T09:39:41.258Z,2.69
2023-02-08T09:42:20.361Z,2.76
2023-02-08T09:45:01.297Z,2.97
2023-02-08T09:47:34.656Z,2.94
2023-02-08T09:50:05.378Z,3.33
2023-02-08T09:52:37.505Z,3.26
2023-02-08T09:55:19.580Z,3.09
2023-02-08T09:57:48.826Z,3.31
2023-02-08T10:00:19.371Z,3.19
2023-02-08T10:02:49.309Z,3.23
2023-02-08T10:05:20.803Z,3.00
2023-02-08T10:07:47.988Z,3.53
2023-02-08T10:10:19.732Z,3.29
2023-02-08T10:12:57.018Z,4.24
2023-02-08T10:15:35.504Z,4.50
2023-02-08T10:18:25.220Z,5.45
2023-02-08T10:21:15.480Z,5.35
2023-02-08T10:24:01.007Z,5.41
2023-02-08T10:26:35.688Z,5.17
2023-02-08T10:29:21.296Z,4.95
2023-02-08T10:32:03.261Z,4.40
2023-02-08T10:34:42.393Z,4.82
2023-02-08T10:37:14.096Z,5.30
2023-02-08T10:39:41.491Z,5.70
2023-02-08T10:42:14.055Z,5.97
2023-02-08T10:44:53.971Z,6.99
2023-02-08T10:47:33.436Z,7.15
2023-02-08T10:50:05.202Z,6.72
2023-02-08T10:52:32.495Z,6.61
2023-02-08T10:54:59.311Z,6.84
2023-02-08T10:57:28.823Z,6.54
2023-02-08T11:00:00.825Z,7.41
2023-02-08T11:02:32.090Z,7.57
2023-02-08T11:05:02.230Z,7.93
2023-02-08T11:07:29.702Z,7.89
2023-02-08T11:10:14.386Z,7.24
2023-02-08T11:12:42.131Z,7.21
2023-02-08T11:15:22.603Z,6.89
2023-02-08T11:17:54.340Z,7.41
2023-02-08T11:20:28.903Z,7.03
2023-02-08T11:22:55.778Z,7.07
2023-02-08T11:25:35.981Z,7.19
2023-02-08T11:28:03.065Z,6.88
2023-02-08T11:30:30.196Z,7.61
2023-02-08T11:33:15.860Z,7.46
2023-02-08T11:36:06.639Z,7.56
2023-02-08T11:38:36.552Z,6.99
2023-02-08T11:41:05.447Z,7.10
2023-02-08T11:43:34.884Z,6.72
2023-02-08T11:46:04.674Z,7.79
2023-02-08T11:48:40.944Z,7.80
2023-02-08T11:51:11.985Z,6.76
2023-02-08T11:53:40.762Z,6.86
2023-02-08T11:56:17.075Z,7.05
2023-02-08T11:59:00.390Z,8.18
2023-02-08T12:01:28.840Z,7.23
2023-02-08T12:03:57.928Z,7.99
2023-02-08T12:06:50.021Z,7.72
2023-02-08T12:09:29.461Z,7.87
2023-02-08T12:12:06.581Z,8.02
2023-02-08T12:14:47.011Z,7.38
2023-02-08T12:17:57.524Z,7.52
2023-02-08T12:20:41.407Z,7.82
2023-02-08T12:23:27.540Z,7.08
2023-02-08T12:26:04.397Z,6.26
2023-02-08T12:28:43.377Z,6.21
2023-02-08T12:31:23.289Z,6.66
2023-02-08T12:34:03.077Z,5.43
2023-02-08T12:36:45.056Z,4.80
2023-02-08T12:39:26.834Z,4.39
2023-02-08T12:42:24.199Z,4.41
2023-02-08T12:45:08.516Z,4.06
2023-02-08T12:50:34.369Z,4.34
2023-02-08T12:53:05.899Z,3.75
2023-02-08T12:55:38.657Z,3.68
2023-02-08T12:58:19.757Z,3.75
2023-02-08T13:00:48.322Z,3.84
2023-02-08T13:03:27.188Z,3.15
2023-02-08T13:06:02.094Z,2.98
2023-02-08T13:08:35.093Z,2.77
2023-02-08T13:11:19.506Z,2.59
2023-02-08T13:13:56.707Z,4.94
2023-02-08T13:16:26.265Z,6.16
2023-02-08T13:18:55.494Z,6.29
2023-02-08T13:21:28.234Z,6.12
2023-02-08T13:23:55.913Z,6.30
2023-02-08T13:26:26.848Z,7.17
2023-02-08T13:28:56.024Z,7.10
2023-02-08T13:31:25.725Z,6.89
2023-02-08T13:34:01.929Z,6.64
2023-02-08T13:36:32.699Z,6.55
2023-02-08T13:39:02.328Z,6.88
2023-02-08T13:41:32.846Z,6.32
2023-02-08T13:44:03.177Z,6.03
2023-02-08T13:46:45.966Z,5.99
2023-02-08T13:49:46.254Z,6.21
2023-02-08T13:52:49.423Z,6.16
2023-02-08T13:55:50.827Z,5.81
2023-02-08T13:58:38.793Z,6.20
2023-02-08T14:01:18.633Z,7.16
2023-02-08T14:04:20.714Z,6.83
2023-02-08T14:06:55.222Z,6.36
2023-02-08T14:09:29.690Z,6.19
2023-02-08T14:12:02.944Z,6.64
2023-02-08T14:14:34.896Z,6.24
2023-02-08T14:17:24.212Z,6.57
2023-02-08T14:19:58.167Z,7.40
2023-02-08T14:22:28.759Z,4.97
2023-02-08T14:25:07.389Z,3.96
2023-02-08T14:27:39.570Z,4.58
2023-02-08T14:30:22.053Z,5.65
2023-02-08T14:32:53.442Z,6.12
2023-02-08T14:35:22.511Z,5.81
2023-02-08T14:37:55.861Z,5.90
2023-02-08T14:40:47.479Z,6.12
2023-02-08T14:43:30.606Z,5.91
2023-02-08T14:46:42.802Z,6.00
2023-02-08T14:49:12.426Z,6.38
2023-02-08T14:51:41.741Z,6.63
2023-02-08T14:54:19.743Z,6.80
2023-02-08T14:56:54.579Z,7.12
2023-02-08T14:59:26.866Z,7.61
2023-02-08T15:01:58.906Z,7.49
2023-02-08T15:04:26.558Z,6.75
2023-02-08T15:07:15.869Z,6.43
2023-02-08T15:09:44.975Z,6.38
2023-02-08T15:12:18.389Z,5.85
2023-02-08T15:14:45.595Z,6.17
2023-02-08T15:17:34.136Z,6.07
2023-02-08T15:20:02.307Z,6.32
2023-02-08T15:22:35.035Z,6.28
2023-02-08T15:25:20.073Z,6.20
2023-02-08T15:27:48.910Z,6.38
2023-02-08T15:30:31.823Z,6.10
2023-02-08T15:33:01.018Z,6.45
2023-02-08T15:35:31.473Z,6.39
2023-02-08T15:37:58.538Z,6.44
2023-02-08T15:40:28.748Z,5.63
2023-02-08T15:43:03.772Z,5.83
2023-02-08T15:45:31.010Z,5.23
2023-02-08T15:48:00.672Z,5.54
2023-02-08T15:50:30.958Z,5.05
2023-02-08T15:53:00.398Z,5.04
2023-02-08T15:55:31.012Z,5.03
2023-02-08T15:58:02.480Z,5.08
2023-02-08T16:00:33.064Z,5.30
2023-02-08T16:03:04.667Z,5.20
2023-02-08T16:05:32.660Z,4.73
2023-02-08T16:08:01.296Z,5.02
2023-02-08T16:10:31.968Z,5.09
2023-02-08T16:13:00.980Z,5.02
2023-02-08T16:15:42.445Z,4.93
2023-02-08T16:18:38.523Z,4.38
2023-02-08T16:21:17.805Z,4.41
2023-02-08T16:23:50.029Z,4.56
2023-02-08T16:26:21.023Z,4.31
2023-02-08T16:28:58.176Z,4.15
2023-02-08T16:31:27.094Z,4.13
2023-02-08T16:34:00.982Z,4.00
2023-02-08T16:36:32.609Z,3.55
2023-02-08T16:39:23.187Z,3.35
2023-02-08T16:42:14.397Z,3.00
2023-02-08T16:44:58.943Z,3.11
2023-02-08T16:47:27.544Z,3.07
2023-02-08T16:49:55.638Z,3.27
2023-02-08T16:52:22.352Z,3.72
2023-02-08T16:54:49.126Z,3.69
2023-02-08T16:57:15.894Z,3.50
2023-02-08T16:59:42.623Z,3.70
2023-02-08T17:02:12.262Z,4.23
2023-02-08T17:04:39.512Z,4.33
2023-02-08T17:07:15.151Z,4.24
2023-02-08T17:09:42.248Z,4.65
2023-02-08T17:12:21.573Z,4.42
2023-02-08T17:14:49.967Z,4.49
2023-02-08T17:17:17.081Z,4.05
2023-02-08T17:19:44.229Z,3.65
2023-02-08T17:22:13.038Z,3.46
2023-02-08T17:24:39.842Z,3.70
2023-02-08T17:27:06.677Z,4.12
2023-02-08T17:29:33.561Z,4.44
2023-02-08T17:32:00.290Z,4.19
2023-02-08T17:34:26.993Z,4.51
2023-02-08T17:36:53.848Z,4.55
2023-02-08T17:39:21.949Z,4.57
2023-02-08T17:41:48.856Z,4.97
2023-02-08T17:44:15.585Z,4.82
2023-02-08T17:46:42.645Z,4.41
2023-02-08T17:49:09.498Z,4.79
2023-02-08T17:51:36.244Z,4.28
2023-02-08T17:54:04.092Z,4.39
2023-02-08T17:56:32.383Z,5.05
2023-02-08T17:58:59.188Z,4.55
2023-02-08T18:01:27.381Z,4.48
2023-02-08T18:03:54.192Z,4.36
2023-02-08T18:06:21.832Z,4.05
2023-02-08T18:08:48.577Z,3.78
2023-02-08T18:11:17.749Z,3.66
2023-02-08T18:13:48.058Z,3.39
2023-02-08T18:16:17.362Z,3.44
2023-02-08T18:18:44.380Z,4.73
2023-02-08T18:21:12.365Z,4.17
2023-02-08T18:23:39.213Z,4.23
2023-02-08T18:26:07.537Z,3.85
2023-02-08T18:28:34.377Z,4.12
2023-02-08T18:31:03.998Z,4.30
2023-02-08T18:33:31.111Z,4.18
2023-02-08T18:35:57.857Z,9.50
2023-02-08T18:38:24.654Z,7.87
2023-02-08T18:40:51.821Z,6.62
2023-02-08T18:43:18.994Z,6.46
2023-02-08T18:45:46.100Z,5.49
2023-02-08T18:48:14.336Z,4.45
2023-02-08T18:50:41.047Z,4.31
2023-02-08T18:53:07.818Z,4.22
2023-02-08T18:55:34.556Z,4.64
2023-02-08T18:58:01.360Z,4.43
2023-02-08T19:00:28.205Z,4.06
2023-02-08T19:02:54.928Z,3.91
2023-02-08T19:05:23.071Z,4.07
2023-02-08T19:07:49.788Z,3.25
2023-02-08T19:10:16.603Z,2.86
2023-02-08T19:12:43.581Z,2.42
2023-02-08T19:15:10.307Z,2.56
2023-02-08T19:17:37.116Z,2.48
2023-02-08T19:20:04.293Z,2.17
2023-02-08T19:22:32.582Z,1.90
2023-02-08T19:24:59.391Z,2.13
2023-02-08T19:27:26.118Z,1.76
2023-02-08T19:29:52.870Z,1.67
2023-02-08T19:32:19.746Z,1.50
2023-02-08T19:34:46.500Z,1.68
2023-02-08T19:37:13.307Z,1.81
2023-02-08T19:39:41.433Z,3.00
2023-02-08T19:42:08.200Z,3.31
2023-02-08T19:44:34.934Z,3.86
2023-02-08T19:47:01.632Z,3.66
2023-02-08T19:49:28.902Z,4.06
2023-02-08T19:51:56.230Z,4.26
2023-02-08T19:54:23.681Z,4.46
2023-02-08T19:56:51.818Z,4.28
2023-02-08T19:59:20.532Z,4.37
2023-02-08T20:01:47.705Z,4.39
2023-02-08T20:04:15.020Z,4.59
2023-02-08T20:06:42.368Z,5.05
2023-02-08T20:09:09.093Z,4.63
2023-02-08T20:11:45.168Z,5.07
2023-02-08T20:14:23.531Z,5.25
2023-02-08T20:16:50.422Z,5.27
2023-02-08T20:19:17.705Z,5.44
2023-02-08T20:21:45.419Z,5.85
2023-02-08T20:24:12.537Z,5.96
2023-02-08T20:26:41.879Z,6.39
2023-02-08T20:29:08.939Z,6.23
2023-02-08T20:31:39.795Z,6.43
2023-02-08T20:34:08.437Z,5.91
2023-02-08T20:36:37.163Z,6.04
2023-02-08T20:39:04.389Z,6.11
2023-02-08T20:41:31.357Z,6.10
2023-02-08T20:43:58.393Z,6.41
2023-02-08T20:46:27.142Z,6.68
2023-02-08T20:48:56.743Z,6.14
2023-02-08T20:51:27.170Z,5.73
2023-02-08T20:53:55.093Z,5.56
2023-02-08T20:56:24.146Z,5.79
2023-02-08T20:58:51.573Z,5.75
2023-02-08T21:01:20.958Z,6.06
2023-02-08T21:03:48.164Z,5.37
2023-02-08T21:06:18.821Z,5.66
2023-02-08T21:08:46.397Z,5.65
2023-02-08T21:11:13.134Z,5.94
2023-02-08T21:13:39.860Z,5.58
2023-02-08T21:16:07.149Z,5.47
2023-02-08T21:18:34.493Z,6.59
2023-02-08T21:21:01.564Z,6.37
2023-02-08T21:23:29.996Z,6.02
2023-02-08T21:25:58.378Z,5.86
2023-02-08T21:28:25.380Z,6.07
2023-02-08T21:30:56.589Z,5.78
2023-02-08T21:33:23.604Z,6.53
2023-02-08T21:35:50.353Z,6.58
2023-02-08T21:38:17.305Z,6.85
2023-02-08T21:40:45.771Z,6.66
2023-02-08T21:43:12.792Z,6.50
2023-02-08T21:45:40.085Z,6.36
2023-02-08T21:48:07.003Z,5.83
2023-02-08T21:50:33.773Z,5.58
2023-02-08T21:53:00.597Z,5.66
2023-02-08T21:55:27.363Z,5.72
2023-02-08T21:57:55.604Z,5.51
2023-02-08T22:00:22.376Z,5.11
2023-02-08T22:02:49.173Z,4.40
2023-02-08T22:05:16.100Z,5.67
2023-02-08T22:07:44.799Z,5.13
2023-02-08T22:10:13.384Z,5.24
2023-02-08T22:12:40.519Z,4.58
2023-02-08T22:15:09.947Z,3.68
2023-02-08T22:17:36.813Z,3.05
2023-02-08T22:20:04.065Z,2.87
2023-02-08T22:22:30.973Z,2.53
2023-02-08T22:24:57.808Z,2.65
2023-02-08T22:27:24.928Z,3.00
2023-02-08T22:29:51.714Z,2.84
2023-02-08T22:32:20.171Z,2.91
2023-02-08T22:34:48.053Z,2.44
2023-02-08T22:37:15.629Z,2.60
2023-02-08T22:39:42.635Z,2.40
2023-02-08T22:42:09.966Z,1.98
2023-02-08T22:44:37.207Z,1.94
2023-02-08T22:47:05.400Z,2.21
2023-02-08T22:49:34.106Z,1.99
2023-02-08T22:52:01.569Z,1.50
2023-02-08T22:54:28.373Z,1.32
2023-02-08T22:56:55.099Z,1.10
2023-02-08T22:59:21.919Z,1.07
2023-02-08T23:01:48.806Z,1.05
2023-02-08T23:04:15.581Z,1.18
2023-02-08T23:06:43.774Z,0.93
2023-02-08T23:09:12.044Z,1.15
2023-02-08T23:11:38.826Z,1.22
2023-02-08T23:14:05.552Z,1.05
2023-02-08T23:16:32.458Z,1.30
2023-02-08T23:18:59.472Z,1.10
2023-02-08T23:21:26.428Z,1.17
2023-02-08T23:23:54.552Z,1.84
2023-02-08T23:26:21.699Z,2.27
2023-02-08T23:28:50.958Z,2.65
2023-02-08T23:31:18.503Z,2.73
2023-02-08T23:33:45.450Z,2.57
2023-02-08T23:36:15.450Z,2.71
2023-02-08T23:38:42.961Z,2.91
2023-02-08T23:41:12.780Z,3.02
2023-02-08T23:43:39.725Z,2.83
2023-02-08T23:46:07.448Z,2.57
2023-02-08T23:48:34.712Z,2.70
2023-02-08T23:51:03.081Z,2.27
2023-02-08T23:53:31.081Z,2.22
2023-02-08T23:56:14.142Z,2.19
2023-02-08T23:58:41.060Z,2.13
